sensor_id;sensor_type;location;lat;lon;timestamp;P1;durP1;ratioP1;P2;durP2;ratioP2
68995;SDS011;56056;48.990;12.146;2023-05-10T00:01:22;886.72;;;825.50;;
68995;SDS011;56056;48.990;12.146;2023-05-10T00:03:48;901.42;;;839.85;;
68995;SDS011;56056;48.990;12.146;2023-05-10T00:06:14;862.95;;;801.90;;
68995;SDS011;56056;48.990;12.146;2023-05-10T00:08:41;845.97;;;785.67;;
68995;SDS011;56056;48.990;12.146;2023-05-10T00:11:06;864.95;;;805.60;;
68995;SDS011;56056;48.990;12.146;2023-05-10T00:13:32;838.72;;;781.53;;
68995;SDS011;56056;48.990;12.146;2023-05-10T00:15:58;821.60;;;765.85;;
68995;SDS011;56056;48.990;12.146;2023-05-10T00:18:24;793.45;;;739.80;;
68995;SDS011;56056;48.990;12.146;2023-05-10T00:20:49;794.13;;;740.58;;
68995;SDS011;56056;48.990;12.146;2023-05-10T00:23:15;791.25;;;737.80;;
68995;SDS011;56056;48.990;12.146;2023-05-10T00:25:42;779.40;;;729.50;;
68995;SDS011;56056;48.990;12.146;2023-05-10T00:28:08;764.72;;;715.13;;
68995;SDS011;56056;48.990;12.146;2023-05-10T00:30:34;769.08;;;718.15;;
68995;SDS011;56056;48.990;12.146;2023-05-10T00:32:59;767.00;;;717.17;;
68995;SDS011;56056;48.990;12.146;2023-05-10T00:35:25;713.67;;;667.28;;
68995;SDS011;56056;48.990;12.146;2023-05-10T00:37:51;738.75;;;688.78;;
68995;SDS011;56056;48.990;12.146;2023-05-10T00:40:16;745.05;;;696.63;;
68995;SDS011;56056;48.990;12.146;2023-05-10T00:42:43;708.42;;;662.88;;
68995;SDS011;56056;48.990;12.146;2023-05-10T00:45:09;733.47;;;687.80;;
68995;SDS011;56056;48.990;12.146;2023-05-10T00:47:36;710.63;;;665.35;;
68995;SDS011;56056;48.990;12.146;2023-05-10T00:50:02;721.35;;;674.63;;
68995;SDS011;56056;48.990;12.146;2023-05-10T00:52:28;774.08;;;724.60;;
68995;SDS011;56056;48.990;12.146;2023-05-10T00:54:54;749.50;;;701.05;;
68995;SDS011;56056;48.990;12.146;2023-05-10T00:57:21;740.88;;;693.25;;
68995;SDS011;56056;48.990;12.146;2023-05-10T00:59:48;744.28;;;697.53;;
68995;SDS011;56056;48.990;12.146;2023-05-10T01:02:14;733.03;;;686.10;;
68995;SDS011;56056;48.990;12.146;2023-05-10T01:04:40;745.55;;;697.92;;
68995;SDS011;56056;48.990;12.146;2023-05-10T01:07:05;747.10;;;697.90;;
68995;SDS011;56056;48.990;12.146;2023-05-10T01:09:31;735.15;;;687.05;;
68995;SDS011;56056;48.990;12.146;2023-05-10T01:11:57;681.33;;;637.80;;
68995;SDS011;56056;48.990;12.146;2023-05-10T01:14:24;801.90;;;748.03;;
68995;SDS011;56056;48.990;12.146;2023-05-10T01:16:52;787.58;;;735.05;;
68995;SDS011;56056;48.990;12.146;2023-05-10T01:19:19;840.30;;;781.70;;
68995;SDS011;56056;48.990;12.146;2023-05-10T01:21:48;821.53;;;764.17;;
68995;SDS011;56056;48.990;12.146;2023-05-10T01:24:28;828.95;;;772.80;;
68995;SDS011;56056;48.990;12.146;2023-05-10T01:33:02;922.67;;;855.95;;
68995;SDS011;56056;48.990;12.146;2023-05-10T01:35:34;892.90;;;829.20;;
68995;SDS011;56056;48.990;12.146;2023-05-10T01:38:07;923.47;;;856.20;;
68995;SDS011;56056;48.990;12.146;2023-05-10T01:40:39;947.03;;;878.80;;
68995;SDS011;56056;48.990;12.146;2023-05-10T01:43:11;929.45;;;861.28;;
68995;SDS011;56056;48.990;12.146;2023-05-10T01:45:45;939.08;;;870.97;;
68995;SDS011;56056;48.990;12.146;2023-05-10T01:48:17;915.92;;;850.47;;
68995;SDS011;56056;48.990;12.146;2023-05-10T01:50:44;920.40;;;854.70;;
68995;SDS011;56056;48.990;12.146;2023-05-10T01:53:11;888.05;;;825.47;;
68995;SDS011;56056;48.990;12.146;2023-05-10T01:55:39;880.03;;;817.40;;
68995;SDS011;56056;48.990;12.146;2023-05-10T01:58:08;916.15;;;848.65;;
68995;SDS011;56056;48.990;12.146;2023-05-10T02:00:35;914.50;;;850.33;;
68995;SDS011;56056;48.990;12.146;2023-05-10T02:03:06;919.55;;;852.72;;
68995;SDS011;56056;48.990;12.146;2023-05-10T02:05:34;918.20;;;851.25;;
68995;SDS011;56056;48.990;12.146;2023-05-10T02:08:01;877.00;;;813.28;;
68995;SDS011;56056;48.990;12.146;2023-05-10T02:10:28;935.28;;;866.90;;
68995;SDS011;56056;48.990;12.146;2023-05-10T02:12:54;1004.78;;;930.58;;
68995;SDS011;56056;48.990;12.146;2023-05-10T02:15:22;948.75;;;878.35;;
68995;SDS011;56056;48.990;12.146;2023-05-10T02:17:48;991.90;;;917.97;;
68995;SDS011;56056;48.990;12.146;2023-05-10T02:20:14;994.53;;;922.05;;
68995;SDS011;56056;48.990;12.146;2023-05-10T02:22:43;999.78;;;924.25;;
68995;SDS011;56056;48.990;12.146;2023-05-10T02:25:10;1011.67;;;935.97;;
68995;SDS011;56056;48.990;12.146;2023-05-10T02:27:36;1003.50;;;929.65;;
68995;SDS011;56056;48.990;12.146;2023-05-10T02:30:02;1009.13;;;932.90;;
68995;SDS011;56056;48.990;12.146;2023-05-10T02:32:29;992.53;;;918.47;;
68995;SDS011;56056;48.990;12.146;2023-05-10T02:34:55;993.00;;;918.75;;
68995;SDS011;56056;48.990;12.146;2023-05-10T02:37:20;1020.40;;;945.25;;
68995;SDS011;56056;48.990;12.146;2023-05-10T02:39:48;1028.13;;;953.30;;
68995;SDS011;56056;48.990;12.146;2023-05-10T02:42:16;1020.92;;;945.78;;
68995;SDS011;56056;48.990;12.146;2023-05-10T02:44:42;1018.08;;;940.97;;
68995;SDS011;56056;48.990;12.146;2023-05-10T02:47:08;1072.22;;;989.70;;
68995;SDS011;56056;48.990;12.146;2023-05-10T02:49:34;1062.93;;;982.22;;
68995;SDS011;56056;48.990;12.146;2023-05-10T02:52:01;1040.15;;;960.05;;
68995;SDS011;56056;48.990;12.146;2023-05-10T02:54:29;1057.10;;;977.92;;
68995;SDS011;56056;48.990;12.146;2023-05-10T02:56:58;1045.57;;;968.80;;
68995;SDS011;56056;48.990;12.146;2023-05-10T02:59:25;1040.10;;;962.78;;
68995;SDS011;56056;48.990;12.146;2023-05-10T03:01:51;1052.65;;;973.35;;
68995;SDS011;56056;48.990;12.146;2023-05-10T03:04:16;997.03;;;920.28;;
68995;SDS011;56056;48.990;12.146;2023-05-10T03:06:42;1018.67;;;942.88;;
68995;SDS011;56056;48.990;12.146;2023-05-10T03:09:08;1041.43;;;966.22;;
68995;SDS011;56056;48.990;12.146;2023-05-10T03:11:39;1036.80;;;961.70;;
68995;SDS011;56056;48.990;12.146;2023-05-10T03:14:16;975.72;;;904.65;;
68995;SDS011;56056;48.990;12.146;2023-05-10T03:16:52;976.42;;;907.85;;
68995;SDS011;56056;48.990;12.146;2023-05-10T03:19:24;876.38;;;817.70;;
68995;SDS011;56056;48.990;12.146;2023-05-10T03:21:52;793.60;;;740.50;;
68995;SDS011;56056;48.990;12.146;2023-05-10T03:24:20;780.13;;;729.97;;
68995;SDS011;56056;48.990;12.146;2023-05-10T03:26:47;745.58;;;695.63;;
68995;SDS011;56056;48.990;12.146;2023-05-10T03:29:13;697.30;;;649.97;;
68995;SDS011;56056;48.990;12.146;2023-05-10T03:31:41;689.33;;;644.40;;
68995;SDS011;56056;48.990;12.146;2023-05-10T03:34:07;548.42;;;514.85;;
68995;SDS011;56056;48.990;12.146;2023-05-10T03:36:33;524.63;;;492.58;;
68995;SDS011;56056;48.990;12.146;2023-05-10T03:38:58;547.92;;;513.17;;
68995;SDS011;56056;48.990;12.146;2023-05-10T03:41:24;531.92;;;497.27;;
68995;SDS011;56056;48.990;12.146;2023-05-10T03:43:50;543.10;;;509.02;;
68995;SDS011;56056;48.990;12.146;2023-05-10T03:46:17;546.92;;;511.30;;
68995;SDS011;56056;48.990;12.146;2023-05-10T03:48:43;534.45;;;496.42;;
68995;SDS011;56056;48.990;12.146;2023-05-10T03:51:08;490.63;;;459.95;;
68995;SDS011;56056;48.990;12.146;2023-05-10T03:53:34;418.42;;;391.17;;
68995;SDS011;56056;48.990;12.146;2023-05-10T03:56:00;441.45;;;412.92;;
68995;SDS011;56056;48.990;12.146;2023-05-10T03:58:26;404.33;;;378.98;;
68995;SDS011;56056;48.990;12.146;2023-05-10T04:00:52;386.27;;;362.40;;
68995;SDS011;56056;48.990;12.146;2023-05-10T04:03:19;370.25;;;346.10;;
68995;SDS011;56056;48.990;12.146;2023-05-10T04:05:45;429.80;;;400.17;;
68995;SDS011;56056;48.990;12.146;2023-05-10T04:08:10;332.95;;;311.17;;
68995;SDS011;56056;48.990;12.146;2023-05-10T04:10:36;303.00;;;283.17;;
68995;SDS011;56056;48.990;12.146;2023-05-10T04:13:02;254.77;;;238.70;;
68995;SDS011;56056;48.990;12.146;2023-05-10T04:15:27;252.68;;;236.60;;
68995;SDS011;56056;48.990;12.146;2023-05-10T04:17:53;247.52;;;231.75;;
68995;SDS011;56056;48.990;12.146;2023-05-10T04:20:20;225.55;;;210.15;;
68995;SDS011;56056;48.990;12.146;2023-05-10T04:22:46;233.15;;;217.27;;
68995;SDS011;56056;48.990;12.146;2023-05-10T04:25:11;217.60;;;204.02;;
68995;SDS011;56056;48.990;12.146;2023-05-10T04:27:37;187.32;;;175.63;;
68995;SDS011;56056;48.990;12.146;2023-05-10T04:30:03;181.52;;;169.75;;
68995;SDS011;56056;48.990;12.146;2023-05-10T04:32:30;181.30;;;169.63;;
68995;SDS011;56056;48.990;12.146;2023-05-10T04:34:56;167.00;;;156.15;;
68995;SDS011;56056;48.990;12.146;2023-05-10T04:37:23;201.02;;;186.65;;
68995;SDS011;56056;48.990;12.146;2023-05-10T04:39:49;194.13;;;182.15;;
68995;SDS011;56056;48.990;12.146;2023-05-10T04:42:15;225.70;;;210.88;;
68995;SDS011;56056;48.990;12.146;2023-05-10T04:44:40;177.48;;;166.00;;
68995;SDS011;56056;48.990;12.146;2023-05-10T04:47:06;208.98;;;194.82;;
68995;SDS011;56056;48.990;12.146;2023-05-10T04:49:32;249.55;;;234.38;;
68995;SDS011;56056;48.990;12.146;2023-05-10T04:51:57;254.85;;;237.73;;
68995;SDS011;56056;48.990;12.146;2023-05-10T04:54:24;289.45;;;270.17;;
68995;SDS011;56056;48.990;12.146;2023-05-10T04:56:50;252.68;;;235.93;;
68995;SDS011;56056;48.990;12.146;2023-05-10T04:59:16;256.17;;;240.35;;
68995;SDS011;56056;48.990;12.146;2023-05-10T05:01:42;269.13;;;251.68;;
68995;SDS011;56056;48.990;12.146;2023-05-10T05:04:07;253.93;;;236.70;;
68995;SDS011;56056;48.990;12.146;2023-05-10T05:06:33;214.57;;;201.02;;
68995;SDS011;56056;48.990;12.146;2023-05-10T05:08:59;245.50;;;228.88;;
68995;SDS011;56056;48.990;12.146;2023-05-10T05:11:26;262.02;;;244.32;;
68995;SDS011;56056;48.990;12.146;2023-05-10T05:13:51;243.82;;;227.82;;
68995;SDS011;56056;48.990;12.146;2023-05-10T05:16:17;254.07;;;238.05;;
68995;SDS011;56056;48.990;12.146;2023-05-10T05:18:43;243.15;;;227.25;;
68995;SDS011;56056;48.990;12.146;2023-05-10T05:21:14;242.65;;;226.73;;
68995;SDS011;56056;48.990;12.146;2023-05-10T05:23:41;225.98;;;211.90;;
68995;SDS011;56056;48.990;12.146;2023-05-10T05:26:06;235.50;;;219.95;;
68995;SDS011;56056;48.990;12.146;2023-05-10T05:28:33;286.73;;;268.88;;
68995;SDS011;56056;48.990;12.146;2023-05-10T05:31:02;344.67;;;323.42;;
68995;SDS011;56056;48.990;12.146;2023-05-10T05:33:27;366.40;;;342.77;;
68995;SDS011;56056;48.990;12.146;2023-05-10T05:35:53;294.25;;;275.60;;
68995;SDS011;56056;48.990;12.146;2023-05-10T05:38:18;276.08;;;257.85;;
68995;SDS011;56056;48.990;12.146;2023-05-10T05:40:44;245.93;;;230.23;;
68995;SDS011;56056;48.990;12.146;2023-05-10T05:43:10;291.92;;;273.15;;
68995;SDS011;56056;48.990;12.146;2023-05-10T05:45:37;289.63;;;270.92;;
68995;SDS011;56056;48.990;12.146;2023-05-10T05:48:03;263.48;;;245.90;;
68995;SDS011;56056;48.990;12.146;2023-05-10T05:50:29;288.05;;;269.95;;
68995;SDS011;56056;48.990;12.146;2023-05-10T05:52:55;274.70;;;256.13;;
68995;SDS011;56056;48.990;12.146;2023-05-10T05:55:22;309.13;;;289.83;;
68995;SDS011;56056;48.990;12.146;2023-05-10T05:57:49;285.40;;;266.63;;
68995;SDS011;56056;48.990;12.146;2023-05-10T06:00:14;298.25;;;278.90;;
68995;SDS011;56056;48.990;12.146;2023-05-10T06:02:42;274.63;;;256.08;;
68995;SDS011;56056;48.990;12.146;2023-05-10T06:05:08;288.17;;;269.73;;
68995;SDS011;56056;48.990;12.146;2023-05-10T06:07:34;311.33;;;292.85;;
68995;SDS011;56056;48.990;12.146;2023-05-10T06:09:59;304.92;;;286.58;;
68995;SDS011;56056;48.990;12.146;2023-05-10T06:12:25;349.30;;;325.90;;
68995;SDS011;56056;48.990;12.146;2023-05-10T06:14:51;361.33;;;338.50;;
68995;SDS011;56056;48.990;12.146;2023-05-10T06:17:16;379.20;;;356.20;;
68995;SDS011;56056;48.990;12.146;2023-05-10T06:19:44;342.33;;;320.08;;
68995;SDS011;56056;48.990;12.146;2023-05-10T06:22:10;338.70;;;317.65;;
68995;SDS011;56056;48.990;12.146;2023-05-10T06:24:35;325.67;;;305.05;;
68995;SDS011;56056;48.990;12.146;2023-05-10T06:27:01;365.77;;;341.60;;
68995;SDS011;56056;48.990;12.146;2023-05-10T06:29:27;386.05;;;361.27;;
68995;SDS011;56056;48.990;12.146;2023-05-10T06:31:52;398.17;;;373.25;;
68995;SDS011;56056;48.990;12.146;2023-05-10T06:34:19;391.52;;;366.48;;
68995;SDS011;56056;48.990;12.146;2023-05-10T06:36:46;344.08;;;321.88;;
68995;SDS011;56056;48.990;12.146;2023-05-10T06:39:11;410.27;;;384.70;;
68995;SDS011;56056;48.990;12.146;2023-05-10T06:41:37;459.13;;;429.80;;
68995;SDS011;56056;48.990;12.146;2023-05-10T06:44:03;422.13;;;393.55;;
68995;SDS011;56056;48.990;12.146;2023-05-10T06:46:29;473.88;;;444.27;;
68995;SDS011;56056;48.990;12.146;2023-05-10T06:48:54;451.23;;;421.15;;
68995;SDS011;56056;48.990;12.146;2023-05-10T06:51:20;486.85;;;453.98;;
68995;SDS011;56056;48.990;12.146;2023-05-10T06:53:47;524.33;;;489.42;;
68995;SDS011;56056;48.990;12.146;2023-05-10T06:56:13;507.83;;;475.58;;
68995;SDS011;56056;48.990;12.146;2023-05-10T06:58:39;522.22;;;487.55;;
68995;SDS011;56056;48.990;12.146;2023-05-10T07:01:04;450.70;;;421.48;;
68995;SDS011;56056;48.990;12.146;2023-05-10T07:03:30;497.23;;;464.17;;
68995;SDS011;56056;48.990;12.146;2023-05-10T07:05:59;577.30;;;538.78;;
68995;SDS011;56056;48.990;12.146;2023-05-10T07:08:26;432.25;;;404.17;;
68995;SDS011;56056;48.990;12.146;2023-05-10T07:10:53;513.15;;;479.33;;
68995;SDS011;56056;48.990;12.146;2023-05-10T07:13:25;467.85;;;435.55;;
68995;SDS011;56056;48.990;12.146;2023-05-10T07:15:50;480.98;;;449.80;;
68995;SDS011;56056;48.990;12.146;2023-05-10T07:18:16;532.05;;;497.70;;
68995;SDS011;56056;48.990;12.146;2023-05-10T07:20:42;545.30;;;508.58;;
68995;SDS011;56056;48.990;12.146;2023-05-10T07:23:07;563.22;;;525.72;;
68995;SDS011;56056;48.990;12.146;2023-05-10T07:25:33;608.67;;;567.05;;
68995;SDS011;56056;48.990;12.146;2023-05-10T07:28:00;592.75;;;554.22;;
68995;SDS011;56056;48.990;12.146;2023-05-10T07:30:25;568.55;;;530.63;;
68995;SDS011;56056;48.990;12.146;2023-05-10T07:32:51;677.63;;;631.75;;
68995;SDS011;56056;48.990;12.146;2023-05-10T07:35:17;637.65;;;593.08;;
68995;SDS011;56056;48.990;12.146;2023-05-10T07:37:42;639.20;;;595.95;;
68995;SDS011;56056;48.990;12.146;2023-05-10T07:40:08;661.83;;;616.72;;
68995;SDS011;56056;48.990;12.146;2023-05-10T07:42:34;561.30;;;522.53;;
68995;SDS011;56056;48.990;12.146;2023-05-10T07:45:01;653.78;;;608.08;;
68995;SDS011;56056;48.990;12.146;2023-05-10T07:47:27;679.28;;;633.08;;
68995;SDS011;56056;48.990;12.146;2023-05-10T07:49:53;757.00;;;704.53;;
68995;SDS011;56056;48.990;12.146;2023-05-10T07:52:18;709.78;;;661.55;;
68995;SDS011;56056;48.990;12.146;2023-05-10T07:54:44;722.28;;;672.55;;
68995;SDS011;56056;48.990;12.146;2023-05-10T07:57:10;756.13;;;703.15;;
68995;SDS011;56056;48.990;12.146;2023-05-10T07:59:35;710.05;;;660.53;;
68995;SDS011;56056;48.990;12.146;2023-05-10T08:02:02;740.22;;;686.80;;
68995;SDS011;56056;48.990;12.146;2023-05-10T08:04:28;780.45;;;725.60;;
68995;SDS011;56056;48.990;12.146;2023-05-10T08:06:54;853.53;;;793.88;;
68995;SDS011;56056;48.990;12.146;2023-05-10T08:09:19;894.03;;;828.78;;
68995;SDS011;56056;48.990;12.146;2023-05-10T08:11:48;861.20;;;798.28;;
68995;SDS011;56056;48.990;12.146;2023-05-10T08:14:14;866.25;;;804.95;;
68995;SDS011;56056;48.990;12.146;2023-05-10T08:16:40;926.13;;;856.25;;
68995;SDS011;56056;48.990;12.146;2023-05-10T08:19:07;935.13;;;863.95;;
68995;SDS011;56056;48.990;12.146;2023-05-10T08:21:32;1066.88;;;983.47;;
68995;SDS011;56056;48.990;12.146;2023-05-10T08:23:58;992.00;;;915.90;;
68995;SDS011;56056;48.990;12.146;2023-05-10T08:26:24;1035.20;;;952.45;;
68995;SDS011;56056;48.990;12.146;2023-05-10T08:28:50;1062.55;;;976.30;;
68995;SDS011;56056;48.990;12.146;2023-05-10T08:31:15;1080.22;;;992.50;;
68995;SDS011;56056;48.990;12.146;2023-05-10T08:33:41;1057.35;;;973.65;;
68995;SDS011;56056;48.990;12.146;2023-05-10T08:36:08;1066.72;;;982.88;;
68995;SDS011;56056;48.990;12.146;2023-05-10T08:38:34;1061.50;;;978.00;;
68995;SDS011;56056;48.990;12.146;2023-05-10T08:41:00;1084.75;;;999.83;;
68995;SDS011;56056;48.990;12.146;2023-05-10T08:43:27;1072.38;;;987.63;;
68995;SDS011;56056;48.990;12.146;2023-05-10T08:45:56;1047.80;;;965.20;;
68995;SDS011;56056;48.990;12.146;2023-05-10T08:48:24;1039.85;;;955.90;;
68995;SDS011;56056;48.990;12.146;2023-05-10T08:50:52;1016.08;;;937.40;;
68995;SDS011;56056;48.990;12.146;2023-05-10T08:53:24;967.75;;;895.25;;
68995;SDS011;56056;48.990;12.146;2023-05-10T08:55:51;950.30;;;879.88;;
68995;SDS011;56056;48.990;12.146;2023-05-10T08:58:17;901.65;;;836.60;;
68995;SDS011;56056;48.990;12.146;2023-05-10T09:00:44;929.42;;;859.63;;
68995;SDS011;56056;48.990;12.146;2023-05-10T09:03:10;940.08;;;869.22;;
68995;SDS011;56056;48.990;12.146;2023-05-10T09:05:36;913.28;;;844.58;;
68995;SDS011;56056;48.990;12.146;2023-05-10T09:08:02;885.13;;;821.00;;
68995;SDS011;56056;48.990;12.146;2023-05-10T09:10:29;860.05;;;797.55;;
68995;SDS011;56056;48.990;12.146;2023-05-10T09:12:55;912.55;;;845.63;;
68995;SDS011;56056;48.990;12.146;2023-05-10T09:15:21;887.55;;;823.03;;
68995;SDS011;56056;48.990;12.146;2023-05-10T09:17:47;890.65;;;825.85;;
68995;SDS011;56056;48.990;12.146;2023-05-10T09:20:14;964.20;;;888.85;;
68995;SDS011;56056;48.990;12.146;2023-05-10T09:22:42;899.55;;;834.78;;
68995;SDS011;56056;48.990;12.146;2023-05-10T09:25:08;881.13;;;816.17;;
68995;SDS011;56056;48.990;12.146;2023-05-10T09:27:37;941.03;;;871.47;;
68995;SDS011;56056;48.990;12.146;2023-05-10T09:30:04;861.63;;;799.13;;
68995;SDS011;56056;48.990;12.146;2023-05-10T09:32:36;881.90;;;816.92;;
68995;SDS011;56056;48.990;12.146;2023-05-10T09:35:06;916.88;;;848.72;;
68995;SDS011;56056;48.990;12.146;2023-05-10T09:37:35;981.90;;;907.95;;
68995;SDS011;56056;48.990;12.146;2023-05-10T09:40:04;972.17;;;899.20;;
68995;SDS011;56056;48.990;12.146;2023-05-10T09:42:31;772.08;;;717.80;;
68995;SDS011;56056;48.990;12.146;2023-05-10T09:45:00;609.13;;;571.08;;
68995;SDS011;56056;48.990;12.146;2023-05-10T09:47:27;878.65;;;814.42;;
68995;SDS011;56056;48.990;12.146;2023-05-10T09:49:53;866.97;;;803.17;;
68995;SDS011;56056;48.990;12.146;2023-05-10T09:52:22;860.72;;;799.15;;
68995;SDS011;56056;48.990;12.146;2023-05-10T09:54:52;809.78;;;751.72;;
68995;SDS011;56056;48.990;12.146;2023-05-10T09:57:19;840.00;;;780.47;;
68995;SDS011;56056;48.990;12.146;2023-05-10T09:59:46;811.13;;;757.00;;
68995;SDS011;56056;48.990;12.146;2023-05-10T10:02:13;728.13;;;678.03;;
68995;SDS011;56056;48.990;12.146;2023-05-10T10:04:39;592.75;;;552.90;;
68995;SDS011;56056;48.990;12.146;2023-05-10T10:07:05;556.80;;;519.78;;
68995;SDS011;56056;48.990;12.146;2023-05-10T10:09:32;485.52;;;453.27;;
68995;SDS011;56056;48.990;12.146;2023-05-10T10:11:59;436.40;;;406.92;;
68995;SDS011;56056;48.990;12.146;2023-05-10T10:14:25;444.45;;;411.60;;
68995;SDS011;56056;48.990;12.146;2023-05-10T10:16:50;422.95;;;392.73;;
68995;SDS011;56056;48.990;12.146;2023-05-10T10:19:19;496.65;;;455.77;;
68995;SDS011;56056;48.990;12.146;2023-05-10T10:21:45;510.42;;;471.77;;
68995;SDS011;56056;48.990;12.146;2023-05-10T10:24:11;582.55;;;536.03;;
68995;SDS011;56056;48.990;12.146;2023-05-10T10:26:36;638.30;;;587.20;;
68995;SDS011;56056;48.990;12.146;2023-05-10T10:29:09;841.90;;;769.00;;
68995;SDS011;56056;48.990;12.146;2023-05-10T10:31:41;995.85;;;902.85;;
68995;SDS011;56056;48.990;12.146;2023-05-10T10:34:16;963.38;;;880.70;;
68995;SDS011;56056;48.990;12.146;2023-05-10T10:36:50;986.60;;;893.70;;
68995;SDS011;56056;48.990;12.146;2023-05-10T10:39:16;903.92;;;822.15;;
68995;SDS011;56056;48.990;12.146;2023-05-10T10:41:48;949.10;;;863.17;;
68995;SDS011;56056;48.990;12.146;2023-05-10T10:44:34;928.75;;;845.88;;
68995;SDS011;56056;48.990;12.146;2023-05-10T10:47:06;830.10;;;757.63;;
68995;SDS011;56056;48.990;12.146;2023-05-10T10:49:52;822.65;;;751.95;;
68995;SDS011;56056;48.990;12.146;2023-05-10T10:52:30;885.97;;;811.85;;
68995;SDS011;56056;48.990;12.146;2023-05-10T10:54:58;1029.25;;;935.45;;
68995;SDS011;56056;48.990;12.146;2023-05-10T10:57:26;961.38;;;870.15;;
68995;SDS011;56056;48.990;12.146;2023-05-10T10:59:56;1026.63;;;928.60;;
68995;SDS011;56056;48.990;12.146;2023-05-10T11:02:46;1158.32;;;999.90;;
68995;SDS011;56056;48.990;12.146;2023-05-10T11:05:33;1207.55;;;999.90;;
68995;SDS011;56056;48.990;12.146;2023-05-10T11:08:06;1077.30;;;973.38;;
68995;SDS011;56056;48.990;12.146;2023-05-10T11:10:36;1079.90;;;975.83;;
68995;SDS011;56056;48.990;12.146;2023-05-10T11:13:02;1025.55;;;928.53;;
68995;SDS011;56056;48.990;12.146;2023-05-10T11:15:29;994.95;;;901.95;;
68995;SDS011;56056;48.990;12.146;2023-05-10T11:17:55;980.97;;;886.67;;
68995;SDS011;56056;48.990;12.146;2023-05-10T11:20:21;987.75;;;894.67;;
68995;SDS011;56056;48.990;12.146;2023-05-10T11:22:51;936.72;;;851.88;;
68995;SDS011;56056;48.990;12.146;2023-05-10T11:25:17;1176.78;;;999.90;;
68995;SDS011;56056;48.990;12.146;2023-05-10T11:27:43;1158.22;;;999.90;;
68995;SDS011;56056;48.990;12.146;2023-05-10T11:30:09;1691.10;;;999.90;;
68995;SDS011;56056;48.990;12.146;2023-05-10T11:32:36;1286.40;;;999.90;;
68995;SDS011;56056;48.990;12.146;2023-05-10T11:35:06;1999.90;;;999.90;;
68995;SDS011;56056;48.990;12.146;2023-05-10T11:37:33;1999.90;;;999.90;;
68995;SDS011;56056;48.990;12.146;2023-05-10T11:40:00;1880.07;;;999.90;;
68995;SDS011;56056;48.990;12.146;2023-05-10T11:42:27;1409.70;;;999.90;;
68995;SDS011;56056;48.990;12.146;2023-05-10T11:44:53;1658.13;;;999.90;;
68995;SDS011;56056;48.990;12.146;2023-05-10T11:47:18;1603.35;;;999.90;;
68995;SDS011;56056;48.990;12.146;2023-05-10T11:49:44;1328.53;;;999.90;;
68995;SDS011;56056;48.990;12.146;2023-05-10T11:52:10;1143.63;;;999.90;;
68995;SDS011;56056;48.990;12.146;2023-05-10T11:54:44;1008.92;;;915.50;;
68995;SDS011;56056;48.990;12.146;2023-05-10T11:57:12;887.05;;;804.30;;
68995;SDS011;56056;48.990;12.146;2023-05-10T11:59:38;862.90;;;786.13;;
68995;SDS011;56056;48.990;12.146;2023-05-10T12:02:04;831.78;;;767.20;;
68995;SDS011;56056;48.990;12.146;2023-05-10T12:04:29;797.53;;;734.30;;
68995;SDS011;56056;48.990;12.146;2023-05-10T12:06:55;760.72;;;699.92;;
68995;SDS011;56056;48.990;12.146;2023-05-10T12:09:21;869.40;;;796.92;;
68995;SDS011;56056;48.990;12.146;2023-05-10T12:11:47;823.63;;;755.10;;
68995;SDS011;56056;48.990;12.146;2023-05-10T12:14:14;856.22;;;789.38;;
68995;SDS011;56056;48.990;12.146;2023-05-10T12:16:40;862.45;;;796.28;;
68995;SDS011;56056;48.990;12.146;2023-05-10T12:19:08;854.50;;;786.47;;
68995;SDS011;56056;48.990;12.146;2023-05-10T12:21:34;813.40;;;753.45;;
68995;SDS011;56056;48.990;12.146;2023-05-10T12:24:00;833.30;;;774.88;;
68995;SDS011;56056;48.990;12.146;2023-05-10T12:26:27;883.92;;;819.78;;
68995;SDS011;56056;48.990;12.146;2023-05-10T12:28:53;812.67;;;751.75;;
68995;SDS011;56056;48.990;12.146;2023-05-10T12:31:20;824.17;;;762.17;;
68995;SDS011;56056;48.990;12.146;2023-05-10T12:33:46;961.78;;;888.15;;
68995;SDS011;56056;48.990;12.146;2023-05-10T12:36:14;887.15;;;818.42;;
68995;SDS011;56056;48.990;12.146;2023-05-10T12:38:41;938.83;;;859.22;;
68995;SDS011;56056;48.990;12.146;2023-05-10T12:41:15;1056.53;;;964.05;;
68995;SDS011;56056;48.990;12.146;2023-05-10T12:43:41;1027.00;;;931.83;;
68995;SDS011;56056;48.990;12.146;2023-05-10T12:46:07;1027.45;;;934.38;;
68995;SDS011;56056;48.990;12.146;2023-05-10T12:48:35;1058.22;;;960.63;;
68995;SDS011;56056;48.990;12.146;2023-05-10T12:51:01;939.78;;;858.90;;
68995;SDS011;56056;48.990;12.146;2023-05-10T12:53:27;760.47;;;699.58;;
68995;SDS011;56056;48.990;12.146;2023-05-10T12:55:53;636.00;;;582.85;;
68995;SDS011;56056;48.990;12.146;2023-05-10T12:58:18;558.25;;;511.77;;
68995;SDS011;56056;48.990;12.146;2023-05-10T13:00:44;352.20;;;328.33;;
68995;SDS011;56056;48.990;12.146;2023-05-10T13:03:10;419.52;;;389.77;;
68995;SDS011;56056;48.990;12.146;2023-05-10T13:05:38;360.48;;;338.55;;
68995;SDS011;56056;48.990;12.146;2023-05-10T13:08:03;381.10;;;358.90;;
68995;SDS011;56056;48.990;12.146;2023-05-10T13:10:29;543.47;;;509.88;;
68995;SDS011;56056;48.990;12.146;2023-05-10T13:12:56;708.15;;;657.38;;
68995;SDS011;56056;48.990;12.146;2023-05-10T13:15:22;806.47;;;748.53;;
68995;SDS011;56056;48.990;12.146;2023-05-10T13:17:47;904.05;;;837.95;;
68995;SDS011;56056;48.990;12.146;2023-05-10T13:20:13;927.65;;;860.20;;
68995;SDS011;56056;48.990;12.146;2023-05-10T13:22:40;985.13;;;910.75;;
68995;SDS011;56056;48.990;12.146;2023-05-10T13:25:06;949.22;;;880.60;;
68995;SDS011;56056;48.990;12.146;2023-05-10T13:27:33;1000.70;;;924.30;;
68995;SDS011;56056;48.990;12.146;2023-05-10T13:29:58;957.10;;;882.95;;
68995;SDS011;56056;48.990;12.146;2023-05-10T13:32:24;1005.15;;;927.85;;
68995;SDS011;56056;48.990;12.146;2023-05-10T13:34:50;931.80;;;859.75;;
68995;SDS011;56056;48.990;12.146;2023-05-10T13:37:16;913.22;;;842.72;;
68995;SDS011;56056;48.990;12.146;2023-05-10T13:39:43;918.13;;;849.45;;
68995;SDS011;56056;48.990;12.146;2023-05-10T13:42:08;899.15;;;832.78;;
68995;SDS011;56056;48.990;12.146;2023-05-10T13:44:34;714.42;;;666.15;;
68995;SDS011;56056;48.990;12.146;2023-05-10T13:47:01;767.03;;;715.30;;
68995;SDS011;56056;48.990;12.146;2023-05-10T13:49:26;801.85;;;746.17;;